Davis Prairie, Texas
Current Conditions -  °F | °C
As of 5:15 PM on Monday 22 Dec 2014 (Local Time) from KLXY Reporting Station
Clear Clear  
Wind Chill: 64°   Ceiling: Unl
Heat Index: 64°   Visibility: 10mi
Dew Point: 42°   Wind: 9mph
Humidity: 44%   Direction: 310°NW
Pressure: 29.59"   Gusts: NA
Location:  31.4027°N, 96.4988°W
Report Text: KLXY 222315Z AUTO 31008KT 10SM CLR 18/06 A2959 RMK AO2 T01800056
Loading
Personal Weather Stations






























Interactive Weather Map New forecast layout! Learn more

10-Day Weather Forecast

Advertisements
Track Severe Weather on mobile